createdAt,value
2018-07-21T00:01:46.152Z,12.15
2018-07-21T00:04:15.503Z,11.60
2018-07-21T00:06:45.447Z,11.90
2018-07-21T00:09:15.448Z,11.80
2018-07-21T00:11:44.873Z,12.10
2018-07-21T00:14:20.531Z,12.20
2018-07-21T00:16:50.169Z,11.60
2018-07-21T00:19:19.521Z,12.53
2018-07-21T00:21:48.987Z,11.70
2018-07-21T00:24:18.319Z,11.63
2018-07-21T00:26:50.011Z,12.73
2018-07-21T00:29:20.140Z,14.57
2018-07-21T00:31:49.993Z,12.80
2018-07-21T00:34:19.287Z,12.43
2018-07-21T00:36:48.665Z,11.73
2018-07-21T00:39:18.118Z,12.47
2018-07-21T00:41:47.534Z,13.30
2018-07-21T00:44:16.872Z,12.43
2018-07-21T00:46:46.357Z,12.10
2018-07-21T00:49:15.808Z,12.40
2018-07-21T00:51:46.254Z,12.47
2018-07-21T00:54:15.632Z,12.40
2018-07-21T00:56:44.992Z,13.53
2018-07-21T00:59:14.456Z,12.77
2018-07-21T01:01:43.883Z,14.00
2018-07-21T01:04:13.283Z,13.93
2018-07-21T01:06:42.580Z,13.50
2018-07-21T01:09:12.042Z,14.00
2018-07-21T01:11:41.343Z,13.47
2018-07-21T01:14:10.607Z,14.63
2018-07-21T01:16:39.833Z,12.47
2018-07-21T01:19:09.104Z,12.97
2018-07-21T01:21:38.511Z,13.50
2018-07-21T01:24:07.852Z,13.20
2018-07-21T01:26:37.150Z,12.93
2018-07-21T01:29:06.660Z,14.87
2018-07-21T01:31:36.050Z,12.70
2018-07-21T01:34:05.305Z,13.67
2018-07-21T01:36:34.648Z,16.00
2018-07-21T01:39:07.788Z,15.37
2018-07-21T01:41:37.210Z,14.03
2018-07-21T01:44:06.789Z,14.27
2018-07-21T01:46:36.265Z,13.60
2018-07-21T01:49:05.505Z,14.40
2018-07-21T01:51:34.965Z,13.87
2018-07-21T01:54:04.445Z,14.77
2018-07-21T01:56:33.998Z,13.57
2018-07-21T01:59:03.420Z,14.37
2018-07-21T02:01:34.801Z,14.57
2018-07-21T02:04:07.570Z,13.57
2018-07-21T02:06:37.472Z,14.00
2018-07-21T02:09:08.524Z,14.20
2018-07-21T02:11:39.380Z,14.63
2018-07-21T02:14:09.060Z,15.70
2018-07-21T02:16:38.496Z,14.40
2018-07-21T02:19:08.088Z,15.50
2018-07-21T02:21:37.608Z,16.20
2018-07-21T02:24:07.028Z,13.70
2018-07-21T02:26:39.186Z,15.30
2018-07-21T02:32:06.829Z,14.17
2018-07-21T02:34:36.180Z,14.63
2018-07-21T02:37:05.428Z,13.63
2018-07-21T02:39:34.810Z,14.80
2018-07-21T02:42:09.162Z,14.50
2018-07-21T02:44:39.511Z,14.53
2018-07-21T02:47:09.135Z,15.00
2018-07-21T02:49:38.723Z,14.70
2018-07-21T02:52:08.361Z,14.40
2018-07-21T02:54:37.708Z,14.77
2018-07-21T02:57:07.114Z,15.30
2018-07-21T02:59:36.473Z,14.20
2018-07-21T03:02:06.218Z,15.47
2018-07-21T03:04:35.574Z,13.93
2018-07-21T03:07:05.038Z,14.10
2018-07-21T03:09:34.894Z,14.93
2018-07-21T03:12:04.313Z,14.67
2018-07-21T03:14:33.949Z,14.10
2018-07-21T03:17:06.683Z,15.33
2018-07-21T03:19:36.901Z,15.70
2018-07-21T03:22:06.392Z,15.37
2018-07-21T03:24:35.713Z,14.07
2018-07-21T03:27:05.016Z,13.80
2018-07-21T03:29:34.640Z,16.23
2018-07-21T03:34:45.544Z,14.63
2018-07-21T03:37:15.068Z,15.00
2018-07-21T03:39:44.437Z,15.77
2018-07-21T03:42:13.973Z,14.03
2018-07-21T03:44:43.442Z,16.20
2018-07-21T03:47:12.794Z,15.07
2018-07-21T03:49:42.396Z,15.17
2018-07-21T03:52:11.790Z,14.77
2018-07-21T03:54:41.364Z,18.00
2018-07-21T03:57:10.733Z,15.73
2018-07-21T03:59:40.144Z,14.27
2018-07-21T04:02:09.576Z,14.73
2018-07-21T04:04:38.876Z,17.30
2018-07-21T04:07:08.349Z,15.37
2018-07-21T04:09:37.947Z,15.30
2018-07-21T04:12:07.642Z,15.33
2018-07-21T04:14:37.105Z,14.20
2018-07-21T04:17:10.473Z,14.30
2018-07-21T04:19:39.814Z,15.27
2018-07-21T04:22:09.396Z,14.70
2018-07-21T04:24:40.761Z,15.10
2018-07-21T04:27:10.266Z,15.87
2018-07-21T04:29:39.684Z,15.60
2018-07-21T04:32:09.258Z,15.23
2018-07-21T04:34:38.564Z,14.47
2018-07-21T04:37:07.960Z,15.80
2018-07-21T04:39:37.720Z,14.90
2018-07-21T04:42:07.353Z,15.43
2018-07-21T04:44:36.697Z,16.10
2018-07-21T04:47:06.112Z,15.73
2018-07-21T04:49:35.504Z,15.93
2018-07-21T04:52:05.112Z,15.30
2018-07-21T04:54:34.574Z,14.10
2018-07-21T04:57:04.163Z,15.63
2018-07-21T04:59:33.682Z,14.90
2018-07-21T05:02:03.379Z,14.47
2018-07-21T05:04:32.969Z,14.93
2018-07-21T05:07:02.475Z,15.53
2018-07-21T05:09:32.096Z,16.33
2018-07-21T05:12:01.451Z,15.87
2018-07-21T05:14:39.415Z,14.80
2018-07-21T05:17:15.713Z,16.00
2018-07-21T05:19:52.166Z,16.30
2018-07-21T05:22:27.885Z,15.57
2018-07-21T05:25:06.372Z,15.80
2018-07-21T05:27:35.862Z,15.20
2018-07-21T05:30:17.499Z,14.63
2018-07-21T05:32:50.835Z,13.67
2018-07-21T05:35:24.608Z,14.30
2018-07-21T05:37:54.578Z,14.60
2018-07-21T05:40:24.036Z,13.90
2018-07-21T05:42:53.485Z,14.60
2018-07-21T05:45:23.744Z,14.70
2018-07-21T05:47:53.253Z,14.97
2018-07-21T05:50:23.070Z,13.70
2018-07-21T05:52:52.426Z,13.80
2018-07-21T05:55:24.069Z,13.60
2018-07-21T05:57:53.587Z,14.07
2018-07-21T06:00:39.551Z,15.37
2018-07-21T06:03:09.221Z,13.40
2018-07-21T06:05:43.001Z,14.53
2018-07-21T06:08:12.523Z,13.20
2018-07-21T06:10:42.253Z,13.70
2018-07-21T06:13:11.964Z,14.27
2018-07-21T06:15:41.893Z,13.57
2018-07-21T06:18:11.541Z,12.60
2018-07-21T06:20:41.517Z,13.60
2018-07-21T06:23:10.912Z,12.90
2018-07-21T06:25:40.345Z,12.67
2018-07-21T06:28:09.994Z,13.33
2018-07-21T06:30:39.763Z,13.70
2018-07-21T06:33:18.694Z,12.30
2018-07-21T06:35:48.245Z,12.63
2018-07-21T06:38:18.163Z,11.40
2018-07-21T06:40:47.621Z,12.20
2018-07-21T06:43:16.983Z,11.30
2018-07-21T06:45:46.184Z,12.30
2018-07-21T06:48:16.400Z,11.63
2018-07-21T06:50:45.988Z,10.63
2018-07-21T06:53:20.662Z,12.63
2018-07-21T06:55:50.060Z,11.70
2018-07-21T06:58:25.300Z,10.50
2018-07-21T07:00:56.363Z,9.87
2018-07-21T07:03:25.719Z,10.63
2018-07-21T07:05:55.273Z,11.27
2018-07-21T07:08:24.856Z,11.10
2018-07-21T07:10:54.709Z,11.30
2018-07-21T07:13:27.400Z,10.40
2018-07-21T07:16:02.612Z,10.77
2018-07-21T07:18:48.105Z,10.40
2018-07-21T07:21:53.282Z,9.23
2018-07-21T07:24:39.701Z,9.77
2018-07-21T07:27:21.137Z,10.60
2018-07-21T07:29:56.598Z,9.70
2018-07-21T07:32:43.592Z,9.37
2018-07-21T07:35:22.369Z,10.23
2018-07-21T07:38:02.574Z,9.20
2018-07-21T07:40:47.262Z,9.60
2018-07-21T07:43:34.734Z,8.97
2018-07-21T07:46:22.452Z,8.60
2018-07-21T07:49:09.554Z,9.57
2018-07-21T07:52:07.789Z,9.37
2018-07-21T07:55:11.183Z,9.63
